createdAt,value
2019-04-04T00:00:45.151Z,100130.50
2019-04-04T00:03:21.238Z,100100.28
2019-04-04T00:05:58.129Z,100108.83
2019-04-04T00:08:33.710Z,100124.67
2019-04-04T00:11:08.847Z,100132.27
2019-04-04T00:13:44.081Z,100126.80
2019-04-04T00:16:22.813Z,100117.89
2019-04-04T00:18:59.122Z,100113.00
2019-04-04T00:21:34.829Z,100116.62
2019-04-04T00:24:10.103Z,100136.50
2019-04-04T00:26:45.198Z,100137.03
2019-04-04T00:29:20.265Z,100121.09
2019-04-04T00:31:55.258Z,100112.73
2019-04-04T00:34:30.312Z,100107.48
2019-04-04T00:37:05.350Z,100099.88
2019-04-04T00:39:40.497Z,100094.98
2019-04-04T00:42:16.968Z,100117.37
2019-04-04T00:44:53.868Z,100114.04
2019-04-04T00:47:32.354Z,100092.81
2019-04-04T00:50:10.361Z,100074.39
2019-04-04T00:52:45.318Z,100067.17
2019-04-04T00:55:20.328Z,100065.55
2019-04-04T00:57:55.365Z,100055.64
2019-04-04T01:00:30.404Z,100053.56
2019-04-04T01:03:05.515Z,100057.97
2019-04-04T01:05:40.548Z,100052.26
2019-04-04T01:08:15.538Z,100022.02
2019-04-04T01:10:50.527Z,100001.88
2019-04-04T01:13:27.563Z,100015.36
2019-04-04T01:16:03.295Z,100023.39
2019-04-04T01:18:38.402Z,100021.23
2019-04-04T01:21:13.516Z,100017.64
2019-04-04T01:23:48.510Z,100021.16
2019-04-04T01:26:23.645Z,100013.31
2019-04-04T01:28:59.615Z,99996.78
2019-04-04T01:31:35.388Z,99991.50
2019-04-04T01:34:10.494Z,99998.28
2019-04-04T01:36:45.534Z,99977.92
2019-04-04T01:39:20.666Z,99966.39
2019-04-04T01:41:55.647Z,99956.89
2019-04-04T01:44:30.945Z,99967.48
2019-04-04T01:47:06.328Z,99979.19
2019-04-04T01:49:41.389Z,99964.57
2019-04-04T01:52:16.404Z,99973.80
2019-04-04T01:54:51.488Z,99973.52
2019-04-04T01:57:26.544Z,99959.12
2019-04-04T02:00:01.721Z,99956.45
2019-04-04T02:02:38.070Z,99944.11
2019-04-04T02:05:13.735Z,99944.56
2019-04-04T02:07:49.454Z,99937.33
2019-04-04T02:10:24.330Z,99943.66
2019-04-04T02:13:02.720Z,99961.23
2019-04-04T02:15:37.736Z,99976.55
2019-04-04T02:18:12.804Z,99991.79
2019-04-04T02:20:47.750Z,100002.41
2019-04-04T02:23:22.840Z,100002.13
2019-04-04T02:25:57.814Z,100012.93
2019-04-04T02:28:33.542Z,100002.82
2019-04-04T02:31:09.301Z,100005.28
2019-04-04T02:33:44.498Z,100007.83
2019-04-04T02:36:19.527Z,99996.66
2019-04-04T02:39:13.200Z,99980.92
2019-04-04T02:41:49.309Z,99981.62
2019-04-04T02:44:24.242Z,99980.55
2019-04-04T02:46:59.205Z,99954.02
2019-04-04T02:49:34.474Z,99966.26
2019-04-04T02:52:12.819Z,99979.45
2019-04-04T02:54:46.249Z,99976.09
2019-04-04T02:57:21.319Z,99975.09
2019-04-04T02:59:56.276Z,99979.74
2019-04-04T03:02:31.251Z,99973.34
2019-04-04T03:05:06.525Z,99974.08
2019-04-04T03:07:43.732Z,99987.61
2019-04-04T03:10:18.689Z,99984.01
2019-04-04T03:12:58.033Z,99977.80
2019-04-04T03:15:31.012Z,99975.80
2019-04-04T03:18:06.352Z,99973.78
2019-04-04T03:20:41.416Z,99983.94
2019-04-04T03:23:16.383Z,99985.41
2019-04-04T03:25:51.458Z,99991.45
2019-04-04T03:28:31.363Z,99990.44
2019-04-04T03:31:03.949Z,99980.08
2019-04-04T03:33:40.771Z,99981.02
2019-04-04T03:36:15.753Z,99979.33
2019-04-04T03:38:50.952Z,99977.65
2019-04-04T03:41:27.607Z,99980.47
2019-04-04T03:44:02.684Z,99973.95
2019-04-04T03:46:38.999Z,99963.34
2019-04-04T03:49:14.374Z,99958.81
2019-04-04T03:51:49.357Z,99956.98
2019-04-04T03:54:26.603Z,99942.51
2019-04-04T03:57:01.979Z,99932.66
2019-04-04T03:59:37.240Z,99943.62
2019-04-04T04:02:12.423Z,99950.93
2019-04-04T04:04:47.469Z,99953.59
2019-04-04T04:07:22.847Z,99957.45
2019-04-04T04:09:59.808Z,99965.42
2019-04-04T04:12:34.965Z,99975.16
2019-04-04T04:15:10.708Z,99970.00
2019-04-04T04:17:46.557Z,99978.77
2019-04-04T04:20:21.848Z,99967.98
2019-04-04T04:22:56.930Z,99982.70
2019-04-04T04:25:35.105Z,99987.45
2019-04-04T04:28:08.989Z,99990.28
2019-04-04T04:30:44.370Z,99970.18
2019-04-04T04:33:19.448Z,99942.27
2019-04-04T04:35:54.439Z,99926.85
2019-04-04T04:38:29.459Z,99929.22
2019-04-04T04:41:04.542Z,99938.42
2019-04-04T04:43:40.260Z,99953.78
2019-04-04T04:46:17.804Z,99967.70
2019-04-04T04:48:52.085Z,99991.63
2019-04-04T04:51:27.088Z,100010.97
2019-04-04T04:54:02.287Z,100026.14
2019-04-04T04:56:37.292Z,100017.02
2019-04-04T04:59:13.234Z,100017.77
2019-04-04T05:01:50.639Z,100021.88
2019-04-04T05:04:27.827Z,100031.33
2019-04-04T05:07:02.638Z,100035.61
2019-04-04T05:09:37.631Z,100027.85
2019-04-04T05:12:12.786Z,99997.59
2019-04-04T05:14:47.738Z,99967.11
2019-04-04T05:17:22.818Z,99979.00
2019-04-04T05:19:57.751Z,99995.88
2019-04-04T05:22:33.498Z,100019.94
2019-04-04T05:25:09.112Z,100035.47
2019-04-04T05:27:45.537Z,100014.67
2019-04-04T05:30:20.718Z,100012.79
2019-04-04T05:32:56.492Z,100020.20
2019-04-04T05:35:33.434Z,100030.80
2019-04-04T05:38:12.144Z,100030.98
2019-04-04T05:40:45.721Z,100031.35
2019-04-04T05:43:20.730Z,100014.97
2019-04-04T05:45:55.908Z,100005.64
2019-04-04T05:48:30.905Z,99986.91
2019-04-04T05:51:06.214Z,99971.67
2019-04-04T05:53:41.411Z,99976.41
2019-04-04T05:56:16.493Z,99982.03
2019-04-04T05:58:53.132Z,99980.95
2019-04-04T06:01:29.103Z,99984.48
2019-04-04T06:04:04.491Z,99978.70
2019-04-04T06:06:39.711Z,99968.61
2019-04-04T06:09:15.031Z,99974.94
2019-04-04T06:11:50.905Z,99977.27
2019-04-04T06:14:27.940Z,99969.48
2019-04-04T06:17:05.105Z,99970.28
2019-04-04T06:19:40.633Z,99976.27
2019-04-04T06:22:15.799Z,99974.73
2019-04-04T06:24:52.208Z,99964.48
2019-04-04T06:27:29.684Z,99954.44
2019-04-04T06:30:06.261Z,99952.19
2019-04-04T06:32:42.521Z,99945.38
2019-04-04T06:35:19.086Z,99937.77
2019-04-04T06:37:55.318Z,99949.66
2019-04-04T06:40:30.926Z,99975.64
2019-04-04T06:43:12.048Z,99985.45
2019-04-04T06:45:47.566Z,99974.00
2019-04-04T06:48:22.953Z,99975.55
2019-04-04T06:50:58.186Z,99976.38
2019-04-04T06:53:33.959Z,99988.06
2019-04-04T06:56:08.961Z,100011.41
2019-04-04T06:58:44.563Z,100005.77
2019-04-04T07:01:21.989Z,100003.28
2019-04-04T07:03:59.461Z,100005.89
2019-04-04T07:06:34.349Z,100010.89
2019-04-04T07:09:13.268Z,100005.38
2019-04-04T07:11:47.301Z,100018.22
2019-04-04T07:14:22.507Z,100029.33
2019-04-04T07:16:57.582Z,100036.73
2019-04-04T07:19:32.895Z,100047.21
2019-04-04T07:22:07.888Z,100040.84
2019-04-04T07:24:43.204Z,100026.48
2019-04-04T07:27:18.163Z,100033.79
2019-04-04T07:29:56.593Z,100026.84
2019-04-04T07:32:29.949Z,100017.70
2019-04-04T07:35:05.265Z,100013.16
2019-04-04T07:37:40.265Z,100011.66
2019-04-04T07:40:15.281Z,100017.47
2019-04-04T07:42:50.313Z,100019.61
2019-04-04T07:45:26.981Z,100003.50
2019-04-04T07:48:02.294Z,99995.23
2019-04-04T07:50:40.143Z,100003.27
2019-04-04T07:53:16.105Z,100015.97
2019-04-04T07:55:51.971Z,100022.65
2019-04-04T07:58:26.943Z,100036.59
2019-04-04T08:01:03.573Z,100031.32
2019-04-04T08:03:38.587Z,100037.34
2019-04-04T08:06:13.719Z,100025.33
2019-04-04T08:08:48.713Z,100005.52
2019-04-04T08:11:24.079Z,100004.56
2019-04-04T08:13:59.067Z,100012.16
2019-04-04T08:16:34.257Z,100024.28
2019-04-04T08:19:09.426Z,100025.08
2019-04-04T08:21:44.403Z,100018.75
2019-04-04T08:24:19.407Z,100026.87
2019-04-04T08:26:54.370Z,100039.98
2019-04-04T08:29:29.375Z,100061.48
2019-04-04T08:32:04.717Z,100071.80
2019-04-04T08:34:40.381Z,100081.83
2019-04-04T08:37:15.357Z,100082.31
2019-04-04T08:39:50.378Z,100084.36
2019-04-04T08:42:25.437Z,100081.78
2019-04-04T08:45:00.434Z,100087.87
2019-04-04T08:47:35.581Z,100107.06
2019-04-04T08:50:10.983Z,100110.25
2019-04-04T08:52:45.971Z,100112.76
2019-04-04T08:55:21.343Z,100112.10
2019-04-04T08:57:56.411Z,100111.41
2019-04-04T09:00:32.310Z,100111.77
2019-04-04T09:03:07.283Z,100104.41
2019-04-04T09:05:42.479Z,100101.25
2019-04-04T09:08:17.427Z,100107.70
2019-04-04T09:10:52.630Z,100108.70
2019-04-04T09:13:27.627Z,100097.91
2019-04-04T09:16:02.987Z,100097.41
2019-04-04T09:18:38.919Z,100095.65
2019-04-04T09:21:14.035Z,100094.37
2019-04-04T09:23:49.093Z,100092.04
2019-04-04T09:26:24.120Z,100108.61
2019-04-04T09:28:59.115Z,100099.45
2019-04-04T09:31:34.431Z,100088.38
2019-04-04T09:34:09.513Z,100088.42
2019-04-04T09:36:44.786Z,100093.94
2019-04-04T09:39:19.792Z,100085.81
2019-04-04T09:41:54.793Z,100097.62
2019-04-04T09:44:29.769Z,100093.12
2019-04-04T09:47:05.846Z,100088.19
2019-04-04T09:49:40.977Z,100083.16
2019-04-04T09:52:15.995Z,100084.25
2019-04-04T09:54:52.669Z,100087.64
2019-04-04T09:57:27.689Z,100090.83
2019-04-04T10:00:04.830Z,100082.66
2019-04-04T10:02:42.119Z,100085.05
2019-04-04T10:05:18.527Z,100088.44
2019-04-04T10:07:53.808Z,100091.86
2019-04-04T10:10:29.725Z,100086.08
2019-04-04T10:13:04.777Z,100082.66
2019-04-04T10:15:40.843Z,100088.71
2019-04-04T10:18:16.031Z,100088.44
2019-04-04T10:20:51.139Z,100089.25
2019-04-04T10:23:26.622Z,100092.91
2019-04-04T10:26:01.887Z,100104.45
2019-04-04T10:28:37.039Z,100101.05
2019-04-04T10:31:12.197Z,100096.85
2019-04-04T10:33:48.092Z,100101.81
2019-04-04T10:36:23.229Z,100112.80
2019-04-04T10:38:58.585Z,100110.94
2019-04-04T10:41:34.272Z,100109.05
2019-04-04T10:44:10.806Z,100116.71
2019-04-04T10:46:45.893Z,100123.58
2019-04-04T10:49:21.049Z,100118.59
2019-04-04T10:51:56.128Z,100110.72
2019-04-04T10:54:34.496Z,100106.75
2019-04-04T10:57:09.724Z,100111.97
2019-04-04T10:59:44.815Z,100119.39
2019-04-04T11:02:19.881Z,100124.66
2019-04-04T11:04:55.232Z,100124.11
2019-04-04T11:07:30.894Z,100120.41
2019-04-04T11:10:07.875Z,100123.34
2019-04-04T11:12:44.493Z,100119.68
2019-04-04T11:15:19.527Z,100112.34
2019-04-04T11:17:54.699Z,100108.66
2019-04-04T11:20:30.004Z,100098.95
2019-04-04T11:23:05.071Z,100105.78
2019-04-04T11:25:40.285Z,100102.64
2019-04-04T11:28:15.396Z,100110.53
2019-04-04T11:30:50.428Z,100103.40
2019-04-04T11:33:27.536Z,100099.72
2019-04-04T11:36:03.006Z,100093.64
2019-04-04T11:38:38.075Z,100102.52
2019-04-04T11:41:13.359Z,100093.55
2019-04-04T11:43:48.478Z,100094.36
2019-04-04T11:46:23.741Z,100091.70
2019-04-04T11:48:58.789Z,100081.66
2019-04-04T11:51:34.297Z,100076.50
2019-04-04T11:54:09.499Z,100095.32
2019-04-04T11:56:44.477Z,100101.37
2019-04-04T11:59:19.547Z,100087.34
2019-04-04T12:01:54.752Z,100094.09
2019-04-04T12:04:29.782Z,100102.55
2019-04-04T12:07:04.957Z,100106.01
2019-04-04T12:09:40.001Z,100112.84
2019-04-04T12:12:15.233Z,100117.07
2019-04-04T12:14:50.244Z,100123.12
2019-04-04T12:17:25.411Z,100122.02
2019-04-04T12:20:00.433Z,100129.92
2019-04-04T12:22:35.504Z,100124.66
2019-04-04T12:25:11.037Z,100119.87
2019-04-04T12:27:46.041Z,100121.73
2019-04-04T12:30:21.535Z,100115.45
2019-04-04T12:32:56.584Z,100113.09
2019-04-04T12:35:31.861Z,100115.72
2019-04-04T12:38:10.278Z,100115.41
2019-04-04T12:40:46.100Z,100107.08
2019-04-04T12:43:21.189Z,100094.46
2019-04-04T12:45:57.615Z,100103.91
2019-04-04T12:48:32.985Z,100111.42
2019-04-04T12:51:08.047Z,100111.97
2019-04-04T12:53:43.893Z,100103.28
2019-04-04T12:56:19.130Z,100103.53
2019-04-04T12:58:55.121Z,100113.62
2019-04-04T13:01:30.147Z,100136.30
2019-04-04T13:04:05.111Z,100146.43
2019-04-04T13:06:40.114Z,100150.55
2019-04-04T13:09:15.187Z,100158.94
2019-04-04T13:11:50.235Z,100143.48
2019-04-04T13:14:25.399Z,100127.59
2019-04-04T13:17:00.403Z,100115.54
2019-04-04T13:19:35.588Z,100100.97
2019-04-04T13:22:10.588Z,100112.47
2019-04-04T13:24:45.606Z,100112.82
2019-04-04T13:27:20.734Z,100107.31
2019-04-04T13:29:55.703Z,100097.84
2019-04-04T13:32:30.722Z,100091.30
2019-04-04T13:35:06.148Z,100095.39
2019-04-04T13:37:41.307Z,100118.14
2019-04-04T13:40:16.756Z,100124.19
2019-04-04T13:42:53.095Z,100110.58
2019-04-04T13:45:28.511Z,100104.84
2019-04-04T13:48:05.334Z,100089.80
2019-04-04T13:50:40.324Z,100102.73
2019-04-04T13:53:15.373Z,100120.28
2019-04-04T13:55:50.352Z,100125.72
2019-04-04T13:58:25.360Z,100121.59
2019-04-04T14:01:00.330Z,100109.56
2019-04-04T14:03:35.438Z,100117.33
2019-04-04T14:06:10.428Z,100114.66
2019-04-04T14:08:46.177Z,100127.56
2019-04-04T14:11:21.268Z,100137.72
2019-04-04T14:13:58.704Z,100137.41
2019-04-04T14:16:33.769Z,100138.22
2019-04-04T14:19:10.204Z,100128.07
2019-04-04T14:21:45.386Z,100121.52
2019-04-04T14:24:21.522Z,100118.87
2019-04-04T14:26:56.577Z,100118.08
2019-04-04T14:29:31.795Z,100115.48
2019-04-04T14:32:06.775Z,100118.39
2019-04-04T14:34:42.040Z,100118.11
2019-04-04T14:37:17.049Z,100121.64
2019-04-04T14:39:52.147Z,100122.42
2019-04-04T14:42:27.218Z,100119.80
2019-04-04T14:45:02.899Z,100120.83
2019-04-04T14:47:38.015Z,100117.45
2019-04-04T14:50:13.530Z,100117.45
2019-04-04T14:52:51.794Z,100128.22
2019-04-04T14:55:26.012Z,100135.20
2019-04-04T14:58:01.072Z,100127.11
2019-04-04T15:00:36.122Z,100132.50
2019-04-04T15:03:11.316Z,100140.55
2019-04-04T15:05:46.326Z,100142.36
2019-04-04T15:08:21.538Z,100152.87
2019-04-04T15:10:56.531Z,100158.58
2019-04-04T15:13:31.744Z,100177.28
2019-04-04T15:16:18.986Z,100185.28
2019-04-04T15:18:54.131Z,100193.64
2019-04-04T15:21:29.146Z,100194.00
2019-04-04T15:24:10.372Z,100199.03
2019-04-04T15:26:45.380Z,100187.80
2019-04-04T15:29:20.503Z,100184.66
2019-04-04T15:31:55.492Z,100186.00
2019-04-04T15:34:30.586Z,100183.84
2019-04-04T15:37:05.629Z,100187.80
2019-04-04T15:39:41.806Z,100185.71
2019-04-04T15:42:17.790Z,100178.63
2019-04-04T15:44:53.081Z,100177.71
2019-04-04T15:47:28.262Z,100184.05
2019-04-04T15:50:07.348Z,100187.23
2019-04-04T15:52:44.268Z,100185.68
2019-04-04T15:55:19.462Z,100180.47
2019-04-04T15:57:54.449Z,100179.19
2019-04-04T16:00:29.466Z,100171.02
2019-04-04T16:03:04.488Z,100172.61
2019-04-04T16:05:40.522Z,100185.11
2019-04-04T16:08:15.494Z,100193.11
2019-04-04T16:10:50.564Z,100186.25
2019-04-04T16:13:28.312Z,100189.64
2019-04-04T16:16:03.642Z,100211.60
2019-04-04T16:18:38.654Z,100226.09
2019-04-04T16:21:13.883Z,100214.47
2019-04-04T16:23:48.889Z,100221.61
2019-04-04T16:26:24.044Z,100231.83
2019-04-04T16:28:59.110Z,100235.98
2019-04-04T16:31:34.639Z,100228.08
2019-04-04T16:34:09.907Z,100231.77
2019-04-04T16:36:44.902Z,100232.55
2019-04-04T16:39:22.347Z,100232.48
2019-04-04T16:42:02.470Z,100231.77
2019-04-04T16:44:34.832Z,100237.66
2019-04-04T16:47:09.856Z,100264.60
2019-04-04T16:49:45.028Z,100270.87
2019-04-04T16:52:20.163Z,100272.51
2019-04-04T16:54:55.168Z,100275.63
2019-04-04T16:57:30.502Z,100273.81
2019-04-04T17:00:08.666Z,100273.98
2019-04-04T17:02:43.943Z,100276.41
2019-04-04T17:05:19.950Z,100275.63
2019-04-04T17:07:58.980Z,100275.70
2019-04-04T17:10:34.327Z,100275.14
2019-04-04T17:13:10.632Z,100281.36
2019-04-04T17:15:46.373Z,100287.67
2019-04-04T17:18:21.667Z,100296.79
2019-04-04T17:24:08.414Z,100313.33
2019-04-04T17:26:44.806Z,100318.05
2019-04-04T17:29:20.957Z,100320.95
2019-04-04T17:31:56.079Z,100312.86
2019-04-04T17:34:54.006Z,100327.52
2019-04-04T17:37:36.446Z,100330.09
2019-04-04T17:40:13.040Z,100327.64
2019-04-04T17:42:49.828Z,100327.63
2019-04-04T17:45:25.240Z,100330.73
2019-04-04T17:48:00.464Z,100333.70
2019-04-04T17:50:35.656Z,100336.03
2019-04-04T17:53:10.978Z,100334.17
2019-04-04T17:55:46.466Z,100324.80
2019-04-04T17:58:22.276Z,100329.98
2019-04-04T18:00:57.311Z,100324.14
2019-04-04T18:03:32.914Z,100321.57
2019-04-04T18:06:08.226Z,100332.96
2019-04-04T18:08:43.480Z,100337.05
2019-04-04T18:11:20.182Z,100333.98
2019-04-04T18:13:55.280Z,100333.83
2019-04-04T18:16:30.301Z,100335.58
2019-04-04T18:19:05.372Z,100340.37
2019-04-04T18:21:40.485Z,100340.72
2019-04-04T18:24:15.553Z,100333.62
2019-04-04T18:26:50.575Z,100334.59
2019-04-04T18:29:25.683Z,100330.52
2019-04-04T18:32:00.675Z,100325.41
2019-04-04T18:34:35.922Z,100338.76
2019-04-04T18:37:11.080Z,100343.06
2019-04-04T18:39:46.244Z,100343.00
2019-04-04T18:42:21.343Z,100341.84
2019-04-04T18:45:00.677Z,100348.30
2019-04-04T18:47:35.973Z,100341.82
2019-04-04T18:50:13.360Z,100340.38
2019-04-04T18:52:48.547Z,100325.22
2019-04-04T18:55:23.686Z,100330.53
2019-04-04T18:57:58.662Z,100346.33
2019-04-04T19:00:34.058Z,100358.94
2019-04-04T19:03:09.097Z,100353.50
2019-04-04T19:05:44.243Z,100342.42
2019-04-04T19:08:19.368Z,100343.19
2019-04-04T19:10:54.429Z,100347.33
2019-04-04T19:13:43.760Z,100350.39
2019-04-04T19:16:09.480Z,100339.23
2019-04-04T19:18:44.717Z,100345.16
2019-04-04T19:21:23.006Z,100343.42
2019-04-04T19:23:58.247Z,100341.47
2019-04-04T19:26:34.086Z,100342.42
2019-04-04T19:29:09.159Z,100362.31
2019-04-04T19:31:44.341Z,100359.93
2019-04-04T19:34:19.409Z,100365.70
2019-04-04T19:36:54.420Z,100366.47
2019-04-04T19:39:29.427Z,100372.03
2019-04-04T19:42:05.076Z,100360.09
2019-04-04T19:44:53.224Z,100370.70
2019-04-04T19:47:20.518Z,100388.09
2019-04-04T19:49:55.650Z,100391.73
2019-04-04T19:52:30.703Z,100394.34
2019-04-04T19:55:05.819Z,100407.13
2019-04-04T19:57:41.704Z,100410.52
2019-04-04T20:00:17.024Z,100418.75
2019-04-04T20:02:52.173Z,100416.28
2019-04-04T20:05:27.245Z,100419.66
2019-04-04T20:08:02.683Z,100421.50
2019-04-04T20:10:37.770Z,100430.06
2019-04-04T20:13:13.540Z,100434.75
2019-04-04T20:15:48.645Z,100428.11
2019-04-04T20:18:23.721Z,100427.59
2019-04-04T20:20:58.957Z,100425.52
2019-04-04T20:23:34.332Z,100420.75
2019-04-04T20:26:12.856Z,100424.89
2019-04-04T20:28:50.019Z,100431.27
2019-04-04T20:31:25.104Z,100434.78
2019-04-04T20:34:01.758Z,100419.97
2019-04-04T20:36:36.928Z,100415.50
2019-04-04T20:39:12.359Z,100415.08
2019-04-04T20:41:47.379Z,100409.25
2019-04-04T20:44:22.811Z,100408.48
2019-04-04T20:46:57.804Z,100422.25
2019-04-04T20:49:33.004Z,100433.70
2019-04-04T20:52:08.004Z,100443.47
2019-04-04T20:54:43.198Z,100443.47
2019-04-04T20:57:18.259Z,100432.92
2019-04-04T20:59:53.453Z,100422.77
2019-04-04T21:02:28.476Z,100424.19
2019-04-04T21:05:03.591Z,100425.94
2019-04-04T21:07:38.712Z,100433.73
2019-04-04T21:10:13.789Z,100427.69
2019-04-04T21:12:58.512Z,100420.92
2019-04-04T21:15:33.815Z,100422.64
2019-04-04T21:18:08.893Z,100433.86
2019-04-04T21:20:44.005Z,100441.31
2019-04-04T21:23:19.813Z,100444.05
2019-04-04T21:25:56.573Z,100451.48
2019-04-04T21:28:32.967Z,100446.21
2019-04-04T21:31:07.959Z,100443.88
2019-04-04T21:33:43.498Z,100454.71
2019-04-04T21:36:18.538Z,100458.11
2019-04-04T21:38:53.663Z,100457.27
2019-04-04T21:41:29.722Z,100459.92
2019-04-04T21:44:09.095Z,100459.77
2019-04-04T21:46:41.771Z,100472.50
2019-04-04T21:49:16.772Z,100477.09
2019-04-04T21:51:51.889Z,100463.59
2019-04-04T21:54:29.627Z,100467.39
2019-04-04T21:57:04.679Z,100464.59
2019-04-04T21:59:39.667Z,100462.64
2019-04-04T22:02:14.721Z,100465.39
2019-04-04T22:04:49.691Z,100481.28
2019-04-04T22:07:24.700Z,100491.37
2019-04-04T22:09:59.716Z,100502.91
2019-04-04T22:12:35.046Z,100510.03
2019-04-04T22:15:10.538Z,100494.87
2019-04-04T22:17:45.682Z,100493.00
2019-04-04T22:20:21.858Z,100501.11
2019-04-04T22:22:56.888Z,100488.53
2019-04-04T22:25:32.123Z,100491.41
2019-04-04T22:28:08.102Z,100494.14
2019-04-04T22:30:43.908Z,100498.48
2019-04-04T22:33:18.983Z,100487.78
2019-04-04T22:35:54.139Z,100484.41
2019-04-04T22:38:29.202Z,100475.30
2019-04-04T22:41:04.419Z,100483.95
2019-04-04T22:43:39.462Z,100485.59
2019-04-04T22:46:14.647Z,100476.02
2019-04-04T22:48:49.701Z,100480.95
2019-04-04T22:51:24.722Z,100487.62
2019-04-04T22:53:59.797Z,100487.78
2019-04-04T22:56:35.155Z,100497.52
2019-04-04T22:59:10.379Z,100501.01
2019-04-04T23:01:45.417Z,100509.56
2019-04-04T23:04:21.483Z,100506.53
2019-04-04T23:06:56.511Z,100500.29
2019-04-04T23:09:31.778Z,100489.22
2019-04-04T23:12:06.954Z,100484.94
2019-04-04T23:14:47.894Z,100482.03
2019-04-04T23:17:18.944Z,100488.80
2019-04-04T23:19:54.084Z,100491.54
2019-04-04T23:22:29.276Z,100488.01
2019-04-04T23:25:04.650Z,100487.13
2019-04-04T23:27:40.064Z,100481.28
2019-04-04T23:30:15.668Z,100500.62
2019-04-04T23:32:50.863Z,100499.44
2019-04-04T23:35:25.911Z,100490.75
2019-04-04T23:38:00.913Z,100494.45
2019-04-04T23:40:36.210Z,100499.70
2019-04-04T23:43:11.365Z,100504.38
2019-04-04T23:45:46.504Z,100515.38
2019-04-04T23:48:21.768Z,100502.70
2019-04-04T23:50:56.810Z,100485.98
2019-04-04T23:53:32.206Z,100485.82
2019-04-04T23:56:07.240Z,100495.00
2019-04-04T23:58:43.571Z,100504.23
